Time;durP1;ratioP1;P1;durP2;ratioP2;P2;SDS_P1;SDS_P2;PMS_P1;PMS_P2;Temp;Humidity;BMP_temperature;BMP_pressure;BME280_temperature;BME280_humidity;BME280_pressure;Samples;Min_cycle;Max_cycle;Signal;HPM_P1;HPM_P2
2021/03/19 00:01:49;;;;;;;12.10;7.35;;;;;;;-139.48;100.00;61774.03;5036621;28;20072;-68
2021/03/19 00:04:33;;;;;;;12.05;7.63;;;;;;;-139.48;100.00;61774.03;5036266;28;20464;-68
2021/03/19 00:07:18;;;;;;;13.68;8.00;;;;;;;-139.48;100.00;61774.03;5021167;28;20052;-68
2021/03/19 00:10:03;;;;;;;13.45;7.15;;;;;;;-139.48;100.00;61774.03;5036410;28;20048;-68
2021/03/19 00:12:48;;;;;;;13.27;7.43;;;;;;;-139.48;100.00;61774.03;5021399;28;20053;-69
2021/03/19 00:15:32;;;;;;;13.57;8.30;;;;;;;-139.48;100.00;61774.03;5035897;28;20052;-68
2021/03/19 00:18:16;;;;;;;14.23;8.52;;;;;;;-139.48;100.00;61774.03;5007388;28;20056;-69
2021/03/19 00:21:00;;;;;;;13.43;8.18;;;;;;;-139.48;100.00;61774.03;5021211;28;20099;-68
2021/03/19 00:23:44;;;;;;;17.35;8.32;;;;;;;-139.48;100.00;61774.03;5020902;28;20051;-69
2021/03/19 00:26:28;;;;;;;13.05;8.30;;;;;;;-139.48;100.00;61774.03;5020752;28;20099;-68
2021/03/19 00:29:12;;;;;;;18.70;9.05;;;;;;;-139.48;100.00;61774.03;5035768;28;20525;-69
2021/03/19 00:31:56;;;;;;;14.63;9.00;;;;;;;-139.48;100.00;61774.03;5021040;28;20052;-69
2021/03/19 00:34:40;;;;;;;14.82;9.40;;;;;;;-139.48;100.00;61774.03;5035860;28;20052;-68
2021/03/19 00:37:24;;;;;;;15.93;9.35;;;;;;;-139.48;100.00;61774.03;5035547;28;20514;-69
2021/03/19 00:40:13;;;;;;;20.10;10.27;;;;;;;-139.48;100.00;61774.03;5035607;28;20075;-69
2021/03/19 00:42:57;;;;;;;16.92;10.68;;;;;;;-139.48;100.00;61774.03;5035672;28;20052;-69
2021/03/19 00:45:42;;;;;;;16.50;10.00;;;;;;;-139.48;100.00;61774.03;5020622;28;20183;-68
2021/03/19 00:48:26;;;;;;;21.50;11.25;;;;;;;-139.48;100.00;61774.03;5020606;28;20116;-68
2021/03/19 00:51:12;;;;;;;19.70;12.10;;;;;;;-139.48;100.00;61774.03;5021046;28;20505;-68
2021/03/19 00:53:56;;;;;;;21.50;11.57;;;;;;;-139.48;100.00;61774.03;5035526;28;20569;-69
2021/03/19 00:56:41;;;;;;;24.35;13.02;;;;;;;-139.48;100.00;61774.03;5035225;28;20044;-69
2021/03/19 00:59:25;;;;;;;21.70;12.98;;;;;;;-139.48;100.00;61774.03;5006728;28;20095;-69
2021/03/19 01:02:11;;;;;;;21.25;13.43;;;;;;;-139.48;100.00;61774.03;5035316;28;20124;-69
2021/03/19 01:04:55;;;;;;;28.33;15.57;;;;;;;-139.48;100.00;61774.03;5035121;28;20087;-69
2021/03/19 01:07:39;;;;;;;25.08;13.35;;;;;;;-139.48;100.00;61774.03;5020060;28;20083;-68
2021/03/19 01:10:28;;;;;;;23.73;13.38;;;;;;;-139.48;100.00;61774.03;5035269;28;20100;-68
2021/03/19 01:13:13;;;;;;;25.60;13.75;;;;;;;-139.48;100.00;61774.03;5035099;28;20044;-68
2021/03/19 01:15:58;;;;;;;26.48;16.38;;;;;;;-139.48;100.00;61774.03;5035003;28;20076;-68
2021/03/19 01:18:42;;;;;;;31.58;16.85;;;;;;;-139.48;100.00;61774.03;5020162;28;20506;-68
2021/03/19 01:21:26;;;;;;;27.67;15.43;;;;;;;-139.48;100.00;61774.03;5035346;28;20556;-69
2021/03/19 01:24:10;;;;;;;;;;;;;;;-139.48;100.00;61774.03;5020126;28;20047;-67
2021/03/19 01:26:54;;;;;;;29.48;17.58;;;;;;;-139.48;100.00;61774.03;5034588;28;20007;-68
2021/03/19 01:29:38;;;;;;;32.70;17.88;;;;;;;-139.48;100.00;61774.03;5019649;28;20129;-67
2021/03/19 01:32:22;;;;;;;31.00;16.92;;;;;;;-139.48;100.00;61774.03;5019756;28;20103;-67
2021/03/19 01:35:07;;;;;;;31.20;17.83;;;;;;;-139.48;100.00;61774.03;5019642;28;20048;-66
2021/03/19 01:37:51;;;;;;;30.13;18.08;;;;;;;-139.48;100.00;61774.03;5019703;28;20052;-67
2021/03/19 01:40:46;;;;;;;35.22;19.75;;;;;;;-139.48;100.00;61774.03;5034596;28;20076;-68
2021/03/19 01:43:56;;;;;;;;;;;;;;;-139.48;100.00;61774.03;5035046;28;20095;-67
2021/03/19 01:47:17;;;;;;;29.10;16.25;;;;;;;-139.48;100.00;61774.03;5023633;28;19971;-68
2021/03/19 01:50:40;;;;;;;34.55;18.85;;;;;;;-139.48;100.00;61774.03;5033898;28;20053;-67
2021/03/19 01:54:01;;;;;;;32.10;18.05;;;;;;;-139.48;100.00;61774.03;5019680;28;20080;-66
2021/03/19 01:57:23;;;;;;;28.42;17.95;;;;;;;-139.48;100.00;61774.03;5019010;28;20429;-69
2021/03/19 02:00:45;;;;;;;30.58;17.73;;;;;;;-139.48;100.00;61774.03;5019665;28;20036;-68
2021/03/19 02:04:07;;;;;;;34.38;19.02;;;;;;;-139.48;100.00;61774.03;5034368;28;20067;-66
2021/03/19 02:07:29;;;;;;;36.15;19.92;;;;;;;-139.48;100.00;61774.03;5018964;28;20433;-69
2021/03/19 02:10:50;;;;;;;29.88;17.50;;;;;;;-139.48;100.00;61774.03;5034159;28;20056;-69
2021/03/19 02:14:12;;;;;;;29.45;16.80;;;;;;;-139.48;100.00;61774.03;5034019;28;20406;-69
2021/03/19 02:17:34;;;;;;;30.23;17.30;;;;;;;-139.48;100.00;61774.03;5033778;28;20071;-68
2021/03/19 02:20:56;;;;;;;34.05;18.95;;;;;;;-139.48;100.00;61774.03;5033994;28;20048;-68
2021/03/19 02:24:17;;;;;;;30.13;17.48;;;;;;;-139.48;100.00;61774.03;5033939;28;20048;-68
2021/03/19 02:27:39;;;;;;;30.83;17.08;;;;;;;-139.48;100.00;61774.03;5033802;28;20040;-68
2021/03/19 02:31:01;;;;;;;33.42;18.50;;;;;;;-139.48;100.00;61774.03;5033808;28;20095;-68
2021/03/19 02:33:54;;;;;;;29.48;16.80;;;;;;;-139.48;100.00;61774.03;5033356;28;20048;-69
2021/03/19 02:36:38;;;;;;;35.97;18.13;;;;;;;-139.48;100.00;61774.03;5018553;28;20048;-66
2021/03/19 02:39:23;;;;;;;38.45;19.45;;;;;;;-139.48;100.00;61774.03;5018763;28;20053;-69
2021/03/19 02:42:09;;;;;;;38.47;20.23;;;;;;;-139.48;100.00;61774.03;5018672;28;20052;-69
2021/03/19 02:44:54;;;;;;;30.02;18.75;;;;;;;-139.48;100.00;61774.03;5018746;28;20055;-69
2021/03/19 02:47:38;;;;;;;30.77;17.98;;;;;;;-139.48;100.00;61774.03;5004503;28;20056;-69
2021/03/19 02:50:22;;;;;;;28.42;16.67;;;;;;;-139.48;100.00;61774.03;5018653;28;20052;-68
2021/03/19 02:53:21;;;;;;;32.72;18.50;;;;;;;-139.48;100.00;61774.03;5033178;28;20140;-68
2021/03/19 02:56:11;;;;;;;30.48;17.45;;;;;;;-139.48;100.00;61774.03;5018485;28;20052;-68
2021/03/19 02:58:55;;;;;;;30.42;16.98;;;;;;;-139.48;100.00;61774.03;5018135;28;20139;-69
2021/03/19 03:01:39;;;;;;;26.92;16.40;;;;;;;-139.48;100.00;61774.03;5034413;28;20460;-68
2021/03/19 03:04:24;;;;;;;29.63;16.42;;;;;;;-139.48;100.00;61774.03;5018568;28;20052;-68
2021/03/19 03:07:25;;;;;;;27.83;15.80;;;;;;;-139.48;100.00;61774.03;5018078;28;20045;-67
2021/03/19 03:10:13;;;;;;;26.58;15.40;;;;;;;-139.48;100.00;61774.03;5018056;28;20047;-68
2021/03/19 03:12:57;;;;;;;30.35;16.98;;;;;;;-139.48;100.00;61774.03;5018184;28;20091;-68
2021/03/19 03:15:42;;;;;;;26.50;15.77;;;;;;;-139.48;100.00;61774.03;5018137;28;20045;-68
2021/03/19 03:18:26;;;;;;;25.70;15.73;;;;;;;-139.48;100.00;61774.03;5032963;28;20044;-68
2021/03/19 03:21:10;;;;;;;27.23;15.35;;;;;;;-139.48;100.00;61774.03;5033036;28;20513;-68
2021/03/19 03:23:54;;;;;;;;;;;;;;;-139.48;100.00;61774.03;5033650;28;20060;-68
2021/03/19 03:26:40;;;;;;;28.30;16.67;;;;;;;-139.48;100.00;61774.03;5033154;28;20342;-68
2021/03/19 03:29:25;;;;;;;30.58;17.35;;;;;;;-139.48;100.00;61774.03;5018158;28;20088;-68
2021/03/19 03:32:09;;;;;;;31.77;17.58;;;;;;;-139.48;100.00;61774.03;5017912;28;20578;-68
2021/03/19 03:34:53;;;;;;;28.85;16.25;;;;;;;-139.48;100.00;61774.03;5018057;28;20068;-68
2021/03/19 03:37:37;;;;;;;27.10;15.25;;;;;;;-139.48;100.00;61774.03;5018338;28;20048;-68
2021/03/19 03:40:50;;;;;;;31.63;16.40;;;;;;;-139.48;100.00;61774.03;5032741;28;20096;-68
2021/03/19 03:43:35;;;;;;;34.95;18.08;;;;;;;-139.48;100.00;61774.03;5032783;28;20045;-68
2021/03/19 03:46:22;;;;;;;34.08;18.45;;;;;;;-139.48;100.00;61774.03;5032757;28;20051;-68
2021/03/19 03:49:06;;;;;;;29.45;16.20;;;;;;;-139.48;100.00;61774.03;5017784;28;20100;-68
2021/03/19 03:51:51;;;;;;;28.13;17.35;;;;;;;-139.48;100.00;61774.03;5018067;28;20048;-68
2021/03/19 03:54:35;;;;;;;35.92;19.30;;;;;;;-139.48;100.00;61774.03;5032576;28;20506;-68
2021/03/19 03:57:19;;;;;;;35.50;19.65;;;;;;;-139.48;100.00;61774.03;5032860;28;20457;-68
2021/03/19 04:00:09;;;;;;;37.58;19.85;;;;;;;-139.48;100.00;61774.03;5017950;28;20053;-68
2021/03/19 04:02:53;;;;;;;29.92;17.67;;;;;;;-139.48;100.00;61774.03;5003758;28;20048;-69
2021/03/19 04:05:39;;;;;;;29.10;16.77;;;;;;;-139.48;100.00;61774.03;5017552;28;20044;-68
2021/03/19 04:08:26;;;;;;;28.75;17.50;;;;;;;-139.48;100.00;61774.03;5003723;28;20176;-69
2021/03/19 04:11:15;;;;;;;31.63;17.20;;;;;;;-139.48;100.00;61774.03;5017570;28;20187;-68
2021/03/19 04:13:59;;;;;;;26.40;16.00;;;;;;;-139.48;100.00;61774.03;5034326;28;20552;-68
2021/03/19 04:16:43;;;;;;;28.98;17.13;;;;;;;-139.48;100.00;61774.03;5021098;28;20425;-68
2021/03/19 04:19:27;;;;;;;27.20;15.90;;;;;;;-139.48;100.00;61774.03;5021054;28;20047;-68
2021/03/19 04:22:11;;;;;;;;;;;;;;;-139.48;100.00;61774.03;5021689;28;20055;-69
2021/03/19 04:24:56;;;;;;;32.83;17.57;;;;;;;-139.48;100.00;61774.03;5036030;28;19963;-68
2021/03/19 04:27:44;;;;;;;28.98;17.25;;;;;;;-139.48;100.00;61774.03;5021200;28;20266;-68
2021/03/19 04:30:37;;;;;;;33.25;19.25;;;;;;;-139.48;100.00;61774.03;5021116;28;20092;-69
2021/03/19 04:33:23;;;;;;;39.00;21.10;;;;;;;-139.48;100.00;61774.03;5021351;28;20410;-68
2021/03/19 04:36:17;;;;;;;33.95;19.60;;;;;;;-139.48;100.00;61774.03;5035554;28;20096;-68
2021/03/19 04:39:05;;;;;;;35.63;19.05;;;;;;;-139.48;100.00;61774.03;5035887;28;20528;-68
2021/03/19 04:41:54;;;;;;;31.23;18.55;;;;;;;-139.48;100.00;61774.03;5020630;28;20049;-69
2021/03/19 04:44:42;;;;;;;31.60;17.45;;;;;;;-139.48;100.00;61774.03;5021101;28;20541;-68
2021/03/19 04:47:26;;;;;;;28.80;17.50;;;;;;;-139.48;100.00;61774.03;5020411;28;20186;-68
2021/03/19 04:50:11;;;;;;;30.42;17.45;;;;;;;-139.48;100.00;61774.03;5006813;28;20048;-68
2021/03/19 04:52:55;;;;;;;36.50;19.60;;;;;;;-139.48;100.00;61774.03;5035683;28;20056;-67
2021/03/19 04:55:40;;;;;;;30.73;17.40;;;;;;;-139.48;100.00;61774.03;5035381;28;20465;-68
2021/03/19 04:58:24;;;;;;;27.65;16.73;;;;;;;-139.48;100.00;61774.03;5020879;28;20084;-69
2021/03/19 05:01:08;;;;;;;33.38;19.73;;;;;;;-139.48;100.00;61774.03;5035549;28;20135;-68
2021/03/19 05:03:52;;;;;;;33.17;19.02;;;;;;;-139.48;100.00;61774.03;5020416;28;20055;-68
2021/03/19 05:06:36;;;;;;;35.53;20.65;;;;;;;-139.48;100.00;61774.03;5020109;28;20060;-69
2021/03/19 05:09:20;;;;;;;34.03;18.05;;;;;;;-139.48;100.00;61774.03;5020075;28;20099;-69
2021/03/19 05:12:05;;;;;;;32.45;18.63;;;;;;;-139.48;100.00;61774.03;5035250;28;20099;-68
2021/03/19 05:14:49;;;;;;;36.35;19.17;;;;;;;-139.48;100.00;61774.03;5035109;28;20057;-69
2021/03/19 05:17:34;;;;;;;34.10;19.35;;;;;;;-139.48;100.00;61774.03;5020075;28;20053;-68
2021/03/19 05:20:18;;;;;;;31.98;18.45;;;;;;;-139.48;100.00;61774.03;5020174;28;20072;-67
2021/03/19 05:23:02;;;;;;;32.10;18.77;;;;;;;-139.48;100.00;61774.03;5019876;28;20106;-68
2021/03/19 05:25:46;;;;;;;30.77;18.35;;;;;;;-139.48;100.00;61774.03;5033990;28;20470;-68
2021/03/19 05:28:30;;;;;;;29.50;18.33;;;;;;;-139.48;100.00;61774.03;5034683;28;20103;-69
2021/03/19 05:31:14;;;;;;;30.20;17.73;;;;;;;-139.48;100.00;61774.03;5019671;28;20047;-69
2021/03/19 05:33:58;;;;;;;31.70;17.83;;;;;;;-139.48;100.00;61774.03;5019791;28;20088;-68
2021/03/19 05:36:42;;;;;;;27.45;16.17;;;;;;;-139.48;100.00;61774.03;5019628;28;20084;-69
2021/03/19 05:39:27;;;;;;;31.48;18.13;;;;;;;-139.48;100.00;61774.03;5034556;28;20433;-68
2021/03/19 05:42:16;;;;;;;28.10;17.05;;;;;;;-139.48;100.00;61774.03;5019689;28;20119;-68
2021/03/19 05:45:03;;;;;;;30.30;18.20;;;;;;;-139.48;100.00;61774.03;5034640;28;20044;-68
2021/03/19 05:47:47;;;;;;;32.72;17.77;;;;;;;-139.48;100.00;61774.03;5034464;28;20087;-68
2021/03/19 05:50:34;;;;;;;30.15;18.48;;;;;;;-139.48;100.00;61774.03;5019725;28;20057;-68
2021/03/19 05:53:25;;;;;;;27.00;16.30;;;;;;;-139.48;100.00;61774.03;5019550;28;20437;-68
2021/03/19 05:56:15;;;;;;;30.13;16.55;;;;;;;-139.48;100.00;61774.03;5005284;28;20045;-68
2021/03/19 05:59:00;;;;;;;28.17;16.40;;;;;;;-139.48;100.00;61774.03;5019149;28;20573;-68
2021/03/19 06:01:44;;;;;;;26.45;16.15;;;;;;;-139.48;100.00;61774.03;5034420;28;20468;-68
2021/03/19 06:04:30;;;;;;;32.63;17.60;;;;;;;-139.48;100.00;61774.03;5034010;28;20040;-68
2021/03/19 06:07:14;;;;;;;29.60;16.17;;;;;;;-139.48;100.00;61774.03;5018879;28;20071;-68
2021/03/19 06:10:19;;;;;;;29.88;15.75;;;;;;;-139.48;100.00;61774.03;5033949;28;20049;-68
2021/03/19 06:13:06;;;;;;;27.98;16.20;;;;;;;-139.48;100.00;61774.03;5034038;28;20129;-69
2021/03/19 06:15:52;;;;;;;30.00;16.48;;;;;;;-139.48;100.00;61774.03;5033812;28;20044;-69
2021/03/19 06:18:39;;;;;;;31.20;16.58;;;;;;;-139.48;100.00;61774.03;5004883;28;20053;-68
2021/03/19 06:21:28;;;;;;;35.95;19.70;;;;;;;-139.48;100.00;61774.03;5033699;28;20052;-68
2021/03/19 06:24:26;;;;;;;35.92;18.10;;;;;;;-139.48;100.00;61774.03;5033929;28;20084;-68
2021/03/19 06:27:21;;;;;;;32.30;18.13;;;;;;;-139.48;100.00;61774.03;5018640;28;20126;-69
2021/03/19 06:30:13;;;;;;;31.60;17.92;;;;;;;-139.48;100.00;61774.03;5018854;28;20517;-68
2021/03/19 06:33:11;;;;;;;29.70;17.63;;;;;;;-139.48;100.00;61774.03;5018490;28;20103;-67
2021/03/19 06:36:08;;;;;;;32.90;17.92;;;;;;;-139.48;100.00;61774.03;5033097;28;20048;-68
2021/03/19 06:39:24;;;;;;;31.83;17.90;;;;;;;-139.48;100.00;61774.03;5033601;28;20139;-68
2021/03/19 06:42:13;;;;;;;28.85;17.02;;;;;;;-139.48;100.00;61774.03;5018618;28;20056;-68
2021/03/19 06:45:03;;;;;;;32.42;18.63;;;;;;;-139.48;100.00;61774.03;5018269;28;20445;-68
2021/03/19 06:47:51;;;;;;;28.02;16.58;;;;;;;-139.48;100.00;61774.03;5033361;28;20174;-68
2021/03/19 06:50:39;;;;;;;29.23;16.77;;;;;;;-139.48;100.00;61774.03;5018216;28;20087;-69
2021/03/19 06:53:27;;;;;;;30.25;18.20;;;;;;;-139.48;100.00;61774.03;5033118;28;20051;-69
2021/03/19 06:56:16;;;;;;;28.52;17.10;;;;;;;-139.48;100.00;61774.03;5018072;28;20478;-69
2021/03/19 06:59:20;;;;;;;29.08;17.13;;;;;;;-139.48;100.00;61774.03;5033389;28;20068;-68
2021/03/19 07:02:29;;;;;;;29.20;16.00;;;;;;;-139.48;100.00;61774.03;5018117;28;20533;-69
2021/03/19 07:05:31;;;;;;;30.38;17.63;;;;;;;-139.48;100.00;61774.03;5032966;28;20197;-68
2021/03/19 07:08:37;;;;;;;32.60;18.58;;;;;;;-139.48;100.00;61774.03;5018306;28;20076;-69
2021/03/19 07:11:55;;;;;;;31.33;18.27;;;;;;;-139.48;100.00;61774.03;5017974;28;20045;-69
2021/03/19 07:14:47;;;;;;;33.30;18.98;;;;;;;-139.48;100.00;61774.03;5004049;28;20156;-69
2021/03/19 07:17:52;;;;;;;34.45;19.65;;;;;;;-139.48;100.00;61774.03;5033209;28;20049;-69
2021/03/19 07:21:15;;;;;;;34.67;18.33;;;;;;;-139.48;100.00;61774.03;5018318;28;20133;-69
2021/03/19 07:24:10;;;;;;;42.53;19.83;;;;;;;-139.48;100.00;61774.03;5032746;28;20044;-68
2021/03/19 07:27:16;;;;;;;30.60;17.48;;;;;;;-139.48;100.00;61774.03;5017610;28;20544;-69
2021/03/19 07:30:20;;;;;;;32.05;17.65;;;;;;;-139.48;100.00;61774.03;5004377;28;20084;-68
2021/03/19 07:33:22;;;;;;;35.92;18.48;;;;;;;-139.48;100.00;61774.03;5032771;28;20043;-69
2021/03/19 07:36:35;;;;;;;32.35;18.02;;;;;;;-139.48;100.00;61774.03;5017802;28;20048;-69
2021/03/19 07:39:35;;;;;;;34.50;18.45;;;;;;;-139.48;100.00;61774.03;5032609;28;20052;-68
2021/03/19 07:42:50;;;;;;;37.08;18.13;;;;;;;-139.48;100.00;61774.03;5032969;28;20107;-69
2021/03/19 07:46:00;;;;;;;35.25;17.75;;;;;;;-139.48;100.00;61774.03;5017671;28;20568;-69
2021/03/19 07:48:56;;;;;;;37.67;19.25;;;;;;;-139.48;100.00;61774.03;5019114;28;20076;-68
2021/03/19 07:52:18;;;;;;;38.83;20.15;;;;;;;-139.48;100.00;61774.03;5036687;28;20150;-69
2021/03/19 07:55:05;;;;;;;34.90;19.02;;;;;;;-139.48;100.00;61774.03;5036199;28;20052;-69
2021/03/19 07:57:58;;;;;;;36.60;19.98;;;;;;;-139.48;100.00;61774.03;5036749;28;20136;-68
2021/03/19 08:00:47;;;;;;;37.42;19.70;;;;;;;-139.48;100.00;61774.03;5007546;28;20099;-69
2021/03/19 08:03:31;;;;;;;42.38;21.80;;;;;;;-139.48;100.00;61774.03;5007551;28;20513;-69
2021/03/19 08:06:19;;;;;;;36.45;20.00;;;;;;;-139.48;100.00;61774.03;5036171;28;20176;-68
2021/03/19 08:09:12;;;;;;;37.50;19.75;;;;;;;-139.48;100.00;61774.03;5007414;28;20056;-68
2021/03/19 08:12:01;;;;;;;37.47;20.07;;;;;;;-139.48;100.00;61774.03;5021275;28;20056;-68
2021/03/19 08:14:47;;;;;;;34.83;19.80;;;;;;;-139.48;100.00;61774.03;5020841;28;20128;-69
2021/03/19 08:17:45;;;;;;;39.17;20.67;;;;;;;-139.48;100.00;61774.03;5036377;28;20064;-68
2021/03/19 08:20:41;;;;;;;38.00;20.67;;;;;;;-139.48;100.00;61774.03;5021215;28;20120;-69
2021/03/19 08:23:43;;;;;;;39.75;21.77;;;;;;;-139.48;100.00;61774.03;5007074;28;20513;-69
2021/03/19 08:26:38;;;;;;;37.33;20.52;;;;;;;-139.48;100.00;61774.03;5035709;28;20518;-69
2021/03/19 08:29:35;;;;;;;35.70;20.13;;;;;;;-139.48;100.00;61774.03;5021182;28;20076;-68
2021/03/19 08:32:25;;;;;;;36.25;20.30;;;;;;;-139.48;100.00;61774.03;5035626;28;20052;-69
2021/03/19 08:35:24;;;;;;;39.08;20.23;;;;;;;-139.48;100.00;61774.03;5035637;28;20060;-69
2021/03/19 08:38:25;;;;;;;39.72;22.67;;;;;;;-139.48;100.00;61774.03;5035619;28;20556;-68
2021/03/19 08:41:20;;;;;;;36.78;21.27;;;;;;;-139.48;100.00;61774.03;5020808;28;20406;-68
2021/03/19 08:44:07;;;;;;;41.30;22.08;;;;;;;-139.48;100.00;61774.03;5020466;28;20171;-68
2021/03/19 08:46:58;;;;;;;36.95;21.73;;;;;;;-139.48;100.00;61774.03;5020137;28;20044;-68
2021/03/19 08:49:49;;;;;;;39.22;21.80;;;;;;;-139.48;100.00;61774.03;5020206;28;20155;-69
2021/03/19 08:52:37;;;;;;;42.45;23.67;;;;;;;-139.48;100.00;61774.03;5020578;28;20052;-68
2021/03/19 08:55:23;;;;;;;39.55;22.45;;;;;;;-139.48;100.00;61774.03;5020338;28;20088;-68
2021/03/19 08:58:29;;;;;;;42.10;23.42;;;;;;;-139.48;100.00;61774.03;5020467;28;20083;-69
2021/03/19 09:01:52;;;;;;;39.28;22.90;;;;;;;-139.48;100.00;61774.03;5049848;22;20048;-65
2021/03/19 09:04:52;;;;;;;39.50;24.13;;;;;;;-139.48;100.00;61774.03;5020252;28;20088;-65
2021/03/19 09:07:41;;;;;;;38.50;23.15;;;;;;;-139.48;100.00;61774.03;5020042;28;20048;-65
2021/03/19 09:10:26;;;;;;;42.92;23.48;;;;;;;-139.48;100.00;61774.03;5020207;28;20449;-65
2021/03/19 09:13:12;;;;;;;42.38;24.30;;;;;;;-139.48;100.00;61774.03;5035113;28;20060;-65
2021/03/19 09:16:35;;;;;;;39.47;22.65;;;;;;;-139.48;100.00;61774.03;5035036;28;20394;-65
2021/03/19 09:19:28;;;;;;;36.90;21.67;;;;;;;-139.48;100.00;61774.03;5035119;28;20053;-65
2021/03/19 09:22:22;;;;;;;37.42;22.38;;;;;;;-139.48;100.00;61774.03;5034646;28;20044;-65
2021/03/19 09:25:09;;;;;;;38.93;22.47;;;;;;;-139.48;100.00;61774.03;5035051;28;20402;-65
2021/03/19 09:28:07;;;;;;;39.72;22.27;;;;;;;-139.48;100.00;61774.03;5034838;28;20413;-65
2021/03/19 09:31:00;;;;;;;39.20;20.58;;;;;;;-139.48;100.00;61774.03;5034533;28;20107;-65
2021/03/19 09:33:44;;;;;;;27.35;17.05;;;;;;;-139.48;100.00;61774.03;5034838;28;20532;-65
2021/03/19 09:36:56;;;;;;;31.58;18.67;;;;;;;-139.48;100.00;61774.03;5034775;28;20032;-65
2021/03/19 09:39:58;;;;;;;29.73;17.63;;;;;;;-139.48;100.00;61774.03;5034337;28;20056;-65
2021/03/19 09:43:06;;;;;;;30.63;17.13;;;;;;;-139.48;100.00;61774.03;5034620;28;20111;-65
2021/03/19 09:46:03;;;;;;;32.35;18.88;;;;;;;-139.48;100.00;61774.03;5034594;28;20053;-65
2021/03/19 09:49:11;;;;;;;29.33;17.30;;;;;;;-139.48;100.00;61774.03;5034222;28;20048;-66
2021/03/19 09:51:55;;;;;;;27.40;15.93;;;;;;;-139.48;100.00;61774.03;5019453;28;20132;-66
2021/03/19 09:54:40;;;;;;;28.95;16.42;;;;;;;-139.48;100.00;61774.03;5019542;28;20465;-65
2021/03/19 09:57:28;;;;;;;29.50;16.13;;;;;;;-139.48;100.00;61774.03;5034063;28;20060;-65
2021/03/19 10:00:23;;;;;;;26.52;16.40;;;;;;;-139.48;100.00;61774.03;5019350;28;20059;-65
2021/03/19 10:03:11;;;;;;;26.83;16.58;;;;;;;-139.48;100.00;61774.03;5018841;28;20052;-66
2021/03/19 10:05:55;;;;;;;23.85;14.90;;;;;;;-139.48;100.00;61774.03;5033926;28;20406;-66
2021/03/19 10:08:40;;;;;;;22.65;14.68;;;;;;;-139.48;100.00;61774.03;5033923;28;20111;-65
2021/03/19 10:11:24;;;;;;;25.30;15.75;;;;;;;-139.48;100.00;61774.03;5033315;28;20056;-65
2021/03/19 10:14:12;;;;;;;;;;;;;;;-139.48;100.00;61774.03;5034200;28;20136;-66
2021/03/19 10:17:11;;;;;;;25.27;13.73;;;;;;;-139.48;100.00;61774.03;5033931;28;19940;-65
2021/03/19 10:20:16;;;;;;;22.23;13.40;;;;;;;-139.48;100.00;61774.03;5033976;28;20044;-65
2021/03/19 10:23:30;;;;;;;18.10;12.50;;;;;;;-139.48;100.00;61774.03;5018632;28;20052;-65
2021/03/19 10:26:23;;;;;;;20.85;13.35;;;;;;;-139.48;100.00;61774.03;5034093;28;20552;-64
2021/03/19 10:29:10;;;;;;;21.05;13.07;;;;;;;-139.48;100.00;61774.03;5033781;28;20094;-65
2021/03/19 10:31:59;;;;;;;17.50;11.32;;;;;;;-139.48;100.00;61774.03;5033559;28;20044;-65
2021/03/19 10:35:05;;;;;;;17.10;10.90;;;;;;;-139.48;100.00;61774.03;5033338;28;20052;-65
2021/03/19 10:37:55;;;;;;;17.02;11.70;;;;;;;-139.48;100.00;61774.03;5018693;28;20055;-65
2021/03/19 10:40:40;;;;;;;15.63;11.02;;;;;;;-139.48;100.00;61774.03;5018362;28;20075;-66
2021/03/19 10:43:34;;;;;;;15.82;10.95;;;;;;;-139.48;100.00;61774.03;5018935;28;20410;-66
2021/03/19 10:46:21;;;;;;;19.25;12.05;;;;;;;-139.48;100.00;61774.03;5018639;28;20079;-65
2021/03/19 10:49:19;;;;;;;18.38;11.65;;;;;;;-139.48;100.00;61774.03;5033306;28;20098;-65
2021/03/19 10:52:32;;;;;;;17.83;10.65;;;;;;;-139.48;100.00;61774.03;5018306;28;20129;-65
2021/03/19 10:55:24;;;;;;;15.55;9.73;;;;;;;-139.48;100.00;61774.03;5017937;28;20445;-65
2021/03/19 10:58:53;;;;;;;11.20;8.30;;;;;;;-139.48;100.00;61774.03;5018290;28;20056;-64
2021/03/19 11:01:43;;;;;;;14.40;9.75;;;;;;;-139.48;100.00;61774.03;5019014;28;20040;-65
2021/03/19 11:04:30;;;;;;;13.63;8.90;;;;;;;-139.48;100.00;61774.03;5018366;28;20083;-65
2021/03/19 11:07:24;;;;;;;13.50;8.77;;;;;;;-139.48;100.00;61774.03;5033154;28;20103;-64
2021/03/19 11:10:19;;;;;;;13.10;8.32;;;;;;;-139.48;100.00;61774.03;5033295;28;20056;-63
2021/03/19 11:13:06;;;;;;;12.95;8.82;;;;;;;-139.48;100.00;61774.03;5032929;28;20052;-64
2021/03/19 11:16:13;;;;;;;9.88;7.15;;;;;;;-139.48;100.00;61774.03;5033225;28;20457;-65
2021/03/19 11:19:22;;;;;;;11.15;7.82;;;;;;;-139.48;100.00;61774.03;5033232;28;20137;-63
2021/03/19 11:22:08;;;;;;;11.30;7.85;;;;;;;-139.48;100.00;61774.03;5033095;28;20071;-65
2021/03/19 11:25:08;;;;;;;11.60;7.82;;;;;;;-139.48;100.00;61774.03;5036204;28;20043;-62
2021/03/19 11:27:53;;;;;;;11.25;7.30;;;;;;;-139.48;100.00;61774.03;5021995;28;20521;-65
2021/03/19 11:30:38;;;;;;;9.88;7.65;;;;;;;-139.48;100.00;61774.03;5022207;28;20075;-64
2021/03/19 11:33:22;;;;;;;11.55;7.95;;;;;;;-139.48;100.00;61774.03;5037075;28;20501;-65
2021/03/19 11:36:13;;;;;;;11.48;7.80;;;;;;;-139.48;100.00;61774.03;5036558;28;20091;-65
2021/03/19 11:39:13;;;;;;;11.27;8.45;;;;;;;-139.48;100.00;61774.03;5021766;28;20140;-65
2021/03/19 11:41:57;;;;;;;14.68;9.57;;;;;;;-139.48;100.00;61774.03;5036453;28;20044;-65
2021/03/19 11:44:42;;;;;;;12.80;8.90;;;;;;;-139.48;100.00;61774.03;5036901;28;20040;-66
2021/03/19 11:47:30;;;;;;;12.27;8.07;;;;;;;-139.48;100.00;61774.03;5021524;28;20406;-66
2021/03/19 11:50:22;;;;;;;11.93;8.55;;;;;;;-139.48;100.00;61774.03;5036001;28;20140;-65
2021/03/19 11:53:07;;;;;;;12.05;7.97;;;;;;;-139.48;100.00;61774.03;5036660;28;20044;-65
2021/03/19 11:55:55;;;;;;;13.77;8.80;;;;;;;-139.48;100.00;61774.03;5021420;28;20505;-65
2021/03/19 11:58:39;;;;;;;13.35;7.72;;;;;;;-139.48;100.00;61774.03;5021356;28;20055;-65
2021/03/19 12:01:24;;;;;;;13.10;7.45;;;;;;;-139.48;100.00;61774.03;5021243;28;20103;-65
2021/03/19 12:04:17;;;;;;;11.88;8.13;;;;;;;-139.48;100.00;61774.03;5036207;28;20120;-65
2021/03/19 12:07:02;;;;;;;10.23;7.90;;;;;;;-139.48;100.00;61774.03;5021318;28;20132;-65
2021/03/19 12:09:50;;;;;;;10.63;6.90;;;;;;;-139.48;100.00;61774.03;5036120;28;20750;-65
2021/03/19 12:12:35;;;;;;;11.45;7.75;;;;;;;-139.48;100.00;61774.03;5036201;28;20048;-65
2021/03/19 12:15:20;;;;;;;10.02;6.80;;;;;;;-139.48;100.00;61774.03;5035955;28;20052;-65
2021/03/19 12:18:04;;;;;;;10.30;7.00;;;;;;;-139.48;100.00;61774.03;5007243;28;20048;-65
2021/03/19 12:20:48;;;;;;;9.38;6.88;;;;;;;-139.48;100.00;61774.03;5021220;28;20414;-65
2021/03/19 12:23:32;;;;;;;14.23;7.43;;;;;;;-139.48;100.00;61774.03;5021175;28;20465;-65
2021/03/19 12:26:17;;;;;;;8.93;6.75;;;;;;;-139.48;100.00;61774.03;5021145;28;20104;-65
2021/03/19 12:29:01;;;;;;;8.73;6.93;;;;;;;-139.48;100.00;61774.03;5021127;28;20044;-65
2021/03/19 12:31:45;;;;;;;9.27;6.35;;;;;;;-139.48;100.00;61774.03;5020558;28;20118;-65
2021/03/19 12:34:29;;;;;;;9.18;6.82;;;;;;;-139.48;100.00;61774.03;5035067;28;20142;-66
2021/03/19 12:37:14;;;;;;;8.02;6.30;;;;;;;-139.48;100.00;61774.03;5035919;28;20446;-65
2021/03/19 12:39:58;;;;;;;10.13;8.15;;;;;;;-139.48;100.00;61774.03;5035903;28;20103;-64
2021/03/19 12:42:42;;;;;;;12.60;9.27;;;;;;;-139.48;100.00;61774.03;5035464;28;20510;-65
2021/03/19 12:45:28;;;;;;;21.65;16.92;;;;;;;-139.48;100.00;61774.03;5035992;28;20040;-65
2021/03/19 12:48:13;;;;;;;14.27;12.77;;;;;;;-139.48;100.00;61774.03;5020622;28;20052;-65